createdAt,value
2023-04-08T00:01:27.205Z,100973.81
2023-04-08T00:05:28.826Z,100969.53
2023-04-08T00:09:30.573Z,100970.31
2023-04-08T00:13:32.207Z,100973.25
2023-04-08T00:17:33.737Z,100959.94
2023-04-08T00:21:35.345Z,100971.13
2023-04-08T00:25:36.916Z,100968.69
2023-04-08T00:29:38.675Z,100965.59
2023-04-08T00:33:40.268Z,100974.91
2023-04-08T00:37:42.261Z,100966.09
2023-04-08T00:41:43.763Z,100971.78
2023-04-08T00:45:45.838Z,100975.34
2023-04-08T00:49:48.497Z,100974.63
2023-04-08T00:53:50.294Z,100972.34
2023-04-08T00:57:51.888Z,100968.53
2023-04-08T01:02:08.546Z,100971.59
2023-04-08T01:06:51.386Z,100964.34
2023-04-08T01:10:56.758Z,100974.66
2023-04-08T01:15:05.536Z,100974.66
2023-04-08T01:19:08.863Z,100980.50
2023-04-08T01:23:20.903Z,100972.22
2023-04-08T01:27:22.631Z,100976.03
2023-04-08T01:31:25.306Z,100976.97
2023-04-08T01:35:27.697Z,100978.59
2023-04-08T01:39:30.514Z,100969.34
2023-04-08T01:43:33.842Z,100967.47
2023-04-08T01:47:37.075Z,100972.59
2023-04-08T01:51:39.694Z,100966.75
2023-04-08T01:55:42.996Z,100957.16
2023-04-08T01:59:50.606Z,100971.38
2023-04-08T02:03:55.577Z,100964.34
2023-04-08T02:07:58.663Z,100960.53
2023-04-08T02:12:01.673Z,100968.75
2023-04-08T02:16:11.482Z,100972.78
2023-04-08T02:20:18.669Z,100966.41
2023-04-08T02:24:21.379Z,100970.56
2023-04-08T02:28:24.852Z,100969.28
2023-04-08T02:32:27.922Z,100975.81
2023-04-08T02:36:32.951Z,100973.97
2023-04-08T02:40:37.261Z,100969.59
2023-04-08T02:44:39.191Z,100975.41
2023-04-08T02:48:40.752Z,100982.72
2023-04-08T02:52:43.783Z,100980.00
2023-04-08T02:56:45.577Z,100977.25
2023-04-08T03:00:47.179Z,100978.53
2023-04-08T03:04:48.856Z,100977.63
2023-04-08T03:08:50.663Z,100982.75
2023-04-08T03:12:52.493Z,100981.00
2023-04-08T03:16:54.050Z,100983.31
2023-04-08T03:20:55.891Z,100988.84
2023-04-08T03:24:57.463Z,100991.09
2023-04-08T03:28:59.009Z,100993.41
2023-04-08T03:33:01.534Z,100990.16
2023-04-08T03:37:03.287Z,100988.41
2023-04-08T03:41:04.854Z,100993.91
2023-04-08T03:45:07.019Z,100987.50
2023-04-08T03:49:08.570Z,100995.31
2023-04-08T03:53:12.164Z,100990.50
2023-04-08T03:57:13.734Z,100984.69
2023-04-08T04:01:15.522Z,100993.50
2023-04-08T04:05:17.143Z,100991.19
2023-04-08T04:09:18.780Z,100994.84
2023-04-08T04:13:20.618Z,100999.25
2023-04-08T04:17:22.168Z,100992.94
2023-04-08T04:21:23.657Z,100999.97
2023-04-08T04:25:25.289Z,101003.50
2023-04-08T04:29:26.869Z,100999.97
2023-04-08T04:33:28.460Z,100998.75
2023-04-08T04:37:30.145Z,101008.69
2023-04-08T04:41:31.878Z,101011.41
2023-04-08T04:45:33.427Z,101011.34
2023-04-08T04:49:35.045Z,101017.94
2023-04-08T04:53:36.517Z,101009.66
2023-04-08T04:57:38.257Z,101010.47
2023-04-08T05:01:41.048Z,101018.88
2023-04-08T05:05:42.799Z,101019.97
2023-04-08T05:09:44.353Z,101017.09
2023-04-08T05:13:46.113Z,101033.81
2023-04-08T05:17:47.693Z,101025.16
2023-04-08T05:22:07.127Z,101034.75
2023-04-08T05:26:08.932Z,101035.69
2023-04-08T05:30:11.181Z,101039.50
2023-04-08T05:34:12.701Z,101044.19
2023-04-08T05:38:14.273Z,101035.03
2023-04-08T05:42:15.915Z,101048.69
2023-04-08T05:46:17.582Z,101053.06
2023-04-08T05:50:19.294Z,101050.50
2023-04-08T05:54:21.058Z,101047.25
2023-04-08T05:58:22.581Z,101055.06
2023-04-08T06:02:24.338Z,101062.06
2023-04-08T06:06:26.244Z,101062.97
2023-04-08T06:10:27.798Z,101074.94
2023-04-08T06:14:29.325Z,101082.84
2023-04-08T06:18:31.003Z,101075.16
2023-04-08T06:22:32.729Z,101083.66
2023-04-08T06:26:34.275Z,101090.59
2023-04-08T06:30:36.170Z,101085.59
2023-04-08T06:34:38.143Z,101082.84
2023-04-08T06:38:39.706Z,101087.63
2023-04-08T06:42:43.060Z,101087.72
2023-04-08T06:46:56.198Z,101090.69
2023-04-08T06:50:58.786Z,101099.63
2023-04-08T06:55:00.333Z,101085.53
2023-04-08T06:59:01.856Z,101089.69
2023-04-08T07:03:03.491Z,101098.34
2023-04-08T07:07:05.121Z,101100.53
2023-04-08T07:11:06.829Z,101103.91
2023-04-08T07:15:09.090Z,101109.22
2023-04-08T07:19:10.685Z,101115.75
2023-04-08T07:23:12.212Z,101122.53
2023-04-08T07:27:13.739Z,101119.75
2023-04-08T07:31:17.365Z,101124.78
2023-04-08T07:35:24.219Z,101132.34
2023-04-08T07:39:25.886Z,101144.50
2023-04-08T07:43:27.773Z,101147.13
2023-04-08T07:47:29.380Z,101141.78
2023-04-08T07:51:30.994Z,101142.00
2023-04-08T07:55:35.822Z,101132.41
2023-04-08T07:59:37.568Z,101138.53
2023-04-08T08:03:39.604Z,101140.59
2023-04-08T08:07:41.344Z,101150.88
2023-04-08T08:11:42.973Z,101150.72
2023-04-08T08:15:44.558Z,101151.09
2023-04-08T08:19:46.162Z,101151.84
2023-04-08T08:23:47.919Z,101151.22
2023-04-08T08:27:49.605Z,101147.44
2023-04-08T08:31:51.283Z,101147.13
2023-04-08T08:35:52.945Z,101154.75
2023-04-08T08:39:54.519Z,101158.66
2023-04-08T08:43:57.126Z,101152.31
2023-04-08T08:47:59.823Z,101158.06
2023-04-08T08:52:01.439Z,101167.03
2023-04-08T09:00:08.978Z,101178.63
2023-04-08T09:04:14.059Z,101181.69
2023-04-08T09:08:27.224Z,101173.03
2023-04-08T09:12:29.044Z,101173.56
2023-04-08T09:16:31.099Z,101165.66
2023-04-08T09:20:32.962Z,101163.50
2023-04-08T09:24:35.695Z,101159.78
2023-04-08T09:28:37.790Z,101178.16
2023-04-08T09:33:08.732Z,101163.81
2023-04-08T09:37:10.422Z,101169.19
2023-04-08T09:41:16.157Z,101167.72
2023-04-08T09:45:18.528Z,101180.97
2023-04-08T09:49:22.862Z,101177.72
2023-04-08T09:53:34.261Z,101168.38
2023-04-08T09:57:51.233Z,101164.63
2023-04-08T10:01:54.649Z,101172.16
2023-04-08T10:05:57.503Z,101173.59
2023-04-08T10:09:59.262Z,101173.34
2023-04-08T10:14:01.416Z,101175.16
2023-04-08T10:18:03.133Z,101175.44
2023-04-08T10:22:24.714Z,101171.97
2023-04-08T10:26:40.484Z,101171.97
2023-04-08T10:30:44.952Z,101168.56
2023-04-08T10:34:53.610Z,101174.69
2023-04-08T10:38:55.269Z,101177.41
2023-04-08T10:43:00.552Z,101179.88
2023-04-08T10:47:02.178Z,101183.91
2023-04-08T10:51:05.264Z,101183.16
2023-04-08T10:55:07.385Z,101173.31
2023-04-08T10:59:08.948Z,101181.44
2023-04-08T11:03:13.089Z,101178.34
2023-04-08T11:07:16.092Z,101163.56
2023-04-08T11:11:19.138Z,101174.91
2023-04-08T11:15:24.793Z,101182.38
2023-04-08T11:19:26.421Z,101177.66
2023-04-08T11:23:28.001Z,101176.50
2023-04-08T11:27:29.793Z,101176.31
2023-04-08T11:31:32.630Z,101171.59
2023-04-08T11:35:34.692Z,101166.44
2023-04-08T11:39:43.161Z,101168.84
2023-04-08T11:43:55.996Z,101162.47
2023-04-08T11:47:57.717Z,101154.81
2023-04-08T11:52:00.244Z,101168.16
2023-04-08T11:56:23.987Z,101167.03
2023-04-08T12:00:27.933Z,101158.16
2023-04-08T12:04:30.264Z,101167.50
2023-04-08T12:08:32.052Z,101162.19
2023-04-08T12:12:33.585Z,101158.72
2023-04-08T12:16:35.372Z,101151.22
2023-04-08T12:20:37.125Z,101157.00
2023-04-08T12:24:38.761Z,101144.28
2023-04-08T12:28:40.586Z,101150.63
2023-04-08T12:32:42.764Z,101154.44
2023-04-08T12:36:44.868Z,101144.88
2023-04-08T12:40:47.724Z,101136.44
2023-04-08T12:44:50.897Z,101139.81
2023-04-08T12:49:03.296Z,101130.69
2023-04-08T12:53:05.691Z,101131.91
2023-04-08T12:57:07.233Z,101128.66
2023-04-08T13:01:08.935Z,101134.78
2023-04-08T13:05:10.992Z,101136.72
2023-04-08T13:09:12.519Z,101127.16
2023-04-08T13:13:14.312Z,101133.41
2023-04-08T13:17:16.369Z,101127.47
2023-04-08T13:21:17.993Z,101130.06
2023-04-08T13:25:20.283Z,101119.22
2023-04-08T13:29:21.856Z,101128.53
2023-04-08T13:33:23.444Z,101122.38
2023-04-08T13:37:25.072Z,101114.00
2023-04-08T13:41:28.212Z,101119.16
2023-04-08T13:45:29.849Z,101112.22
2023-04-08T13:49:31.592Z,101112.41
2023-04-08T13:53:33.144Z,101107.34
2023-04-08T13:57:34.829Z,101111.72
2023-04-08T14:01:36.562Z,101115.44
2023-04-08T14:05:38.235Z,101106.72
2023-04-08T14:09:39.854Z,101118.31
2023-04-08T14:13:41.413Z,101109.78
2023-04-08T14:17:43.389Z,101109.53
2023-04-08T14:21:45.000Z,101101.50
2023-04-08T14:25:46.541Z,101101.22
2023-04-08T14:29:48.178Z,101103.19
2023-04-08T14:33:49.727Z,101092.41
2023-04-08T14:37:51.322Z,101096.88
2023-04-08T14:41:52.839Z,101097.09
2023-04-08T14:45:54.477Z,101100.56
2023-04-08T14:49:56.060Z,101103.75
2023-04-08T14:53:57.653Z,101097.44
2023-04-08T14:58:00.912Z,101113.94
2023-04-08T15:02:02.885Z,101107.53
2023-04-08T15:06:04.900Z,101101.25
2023-04-08T15:10:07.147Z,101108.03
2023-04-08T15:14:08.721Z,101117.69
2023-04-08T15:18:10.587Z,101120.75
2023-04-08T15:22:12.903Z,101125.75
2023-04-08T15:26:14.503Z,101126.78
2023-04-08T15:30:17.088Z,101140.00
2023-04-08T15:34:18.636Z,101144.13
2023-04-08T15:38:20.428Z,101140.78
2023-04-08T15:42:22.674Z,101142.25
2023-04-08T15:46:24.358Z,101144.91
2023-04-08T15:50:28.873Z,101147.09
2023-04-08T15:54:31.898Z,101146.09
2023-04-08T15:58:33.545Z,101155.78
2023-04-08T16:02:35.283Z,101157.41
2023-04-08T16:06:37.014Z,101153.00
2023-04-08T16:10:38.586Z,101164.06
2023-04-08T16:14:40.725Z,101163.94
2023-04-08T16:18:44.435Z,101159.41
2023-04-08T16:22:47.646Z,101165.59
2023-04-08T16:26:49.275Z,101165.59
2023-04-08T16:30:50.955Z,101168.19
2023-04-08T16:34:52.535Z,101155.44
2023-04-08T16:38:54.647Z,101158.53
2023-04-08T16:42:56.371Z,101168.66
2023-04-08T16:46:57.962Z,101168.09
2023-04-08T16:50:59.522Z,101164.03
2023-04-08T16:55:01.224Z,101171.75
2023-04-08T16:59:02.924Z,101177.91
2023-04-08T17:03:04.698Z,101176.13
2023-04-08T17:07:06.671Z,101174.13
2023-04-08T17:11:13.296Z,101181.66
2023-04-08T17:15:15.400Z,101190.94
2023-04-08T17:19:17.847Z,101188.34
2023-04-08T17:23:19.359Z,101197.09
2023-04-08T17:27:21.194Z,101206.06
2023-04-08T17:31:22.867Z,101206.72
2023-04-08T17:35:24.527Z,101204.16
2023-04-08T17:39:26.213Z,101211.66
2023-04-08T17:43:27.809Z,101218.53
2023-04-08T17:47:29.451Z,101214.69
2023-04-08T17:51:31.953Z,101229.03
2023-04-08T17:55:33.608Z,101233.81
2023-04-08T17:59:35.363Z,101233.94
2023-04-08T18:03:36.985Z,101238.56
2023-04-08T18:07:38.717Z,101238.25
2023-04-08T18:11:40.372Z,101243.31
2023-04-08T18:15:42.039Z,101238.91
2023-04-08T18:19:43.607Z,101244.63
2023-04-08T18:23:48.911Z,101258.09
2023-04-08T18:27:50.692Z,101253.88
2023-04-08T18:31:52.369Z,101261.75
2023-04-08T18:35:54.527Z,101262.69
2023-04-08T18:39:56.146Z,101253.25
2023-04-08T18:43:58.099Z,101264.38
2023-04-08T18:47:59.740Z,101267.72
2023-04-08T18:52:03.349Z,101270.94
2023-04-08T18:56:05.710Z,101272.75
2023-04-08T19:00:08.662Z,101281.34
2023-04-08T19:04:10.942Z,101279.50
2023-04-08T19:08:12.517Z,101283.44
2023-04-08T19:12:14.342Z,101291.91
2023-04-08T19:16:15.974Z,101283.31
2023-04-08T19:20:17.650Z,101294.41
2023-04-08T19:24:20.774Z,101293.72
2023-04-08T19:28:22.348Z,101293.88
2023-04-08T19:32:24.000Z,101298.22
2023-04-08T19:36:26.120Z,101300.81
2023-04-08T19:40:27.719Z,101310.97
2023-04-08T19:44:29.285Z,101303.06
2023-04-08T19:48:32.627Z,101306.38
2023-04-08T19:52:34.174Z,101317.63
2023-04-08T19:56:37.027Z,101309.91
2023-04-08T20:00:39.290Z,101315.97
2023-04-08T20:04:40.867Z,101313.38
2023-04-08T20:08:42.483Z,101314.31
2023-04-08T20:12:44.177Z,101321.91
2023-04-08T20:16:46.285Z,101321.81
2023-04-08T20:20:48.970Z,101321.69
2023-04-08T20:24:50.863Z,101314.94
2023-04-08T20:28:52.523Z,101327.84
2023-04-08T20:32:54.848Z,101322.88
2023-04-08T20:36:57.266Z,101325.50
2023-04-08T20:40:58.826Z,101324.63
2023-04-08T20:45:00.417Z,101321.06
2023-04-08T20:49:03.496Z,101322.56
2023-04-08T20:53:05.090Z,101313.78
2023-04-08T20:57:06.736Z,101322.38
2023-04-08T21:01:08.538Z,101333.16
2023-04-08T21:05:10.430Z,101326.09
2023-04-08T21:09:14.847Z,101337.06
2023-04-08T21:13:16.541Z,101329.41
2023-04-08T21:17:18.209Z,101334.44
2023-04-08T21:21:19.878Z,101332.47
2023-04-08T21:25:21.488Z,101332.47
2023-04-08T21:29:23.104Z,101334.09
2023-04-08T21:33:24.658Z,101345.28
2023-04-08T21:37:26.538Z,101337.63
2023-04-08T21:41:30.285Z,101336.41
2023-04-08T21:45:32.329Z,101342.13
2023-04-08T21:49:33.941Z,101342.69
2023-04-08T21:53:35.556Z,101341.59
2023-04-08T21:57:37.809Z,101349.84
2023-04-08T22:01:39.847Z,101352.34
2023-04-08T22:05:41.882Z,101346.31
2023-04-08T22:09:43.495Z,101354.78
2023-04-08T22:13:45.331Z,101349.28
2023-04-08T22:17:47.092Z,101355.25
2023-04-08T22:21:50.947Z,101352.75
2023-04-08T22:25:52.500Z,101350.16
2023-04-08T22:29:54.083Z,101345.78
2023-04-08T22:33:56.230Z,101350.78
2023-04-08T22:37:57.814Z,101352.25
2023-04-08T22:41:59.409Z,101354.66
2023-04-08T22:46:01.041Z,101347.75
2023-04-08T22:50:02.630Z,101348.66
2023-04-08T22:54:04.199Z,101345.13
2023-04-08T22:58:05.924Z,101338.38
2023-04-08T23:02:07.584Z,101346.00
2023-04-08T23:06:09.458Z,101348.56
2023-04-08T23:10:11.298Z,101341.69
2023-04-08T23:14:13.001Z,101346.81
2023-04-08T23:18:14.550Z,101343.22
2023-04-08T23:22:16.090Z,101345.72
2023-04-08T23:26:18.777Z,101345.72
2023-04-08T23:30:20.515Z,101350.00
2023-04-08T23:34:22.050Z,101348.22
2023-04-08T23:38:23.559Z,101347.94
2023-04-08T23:42:27.213Z,101352.97
2023-04-08T23:46:29.017Z,101350.16
2023-04-08T23:50:30.598Z,101349.16
2023-04-08T23:54:33.739Z,101358.56
2023-04-08T23:58:35.407Z,101345.63
